createdAt,value
2022-08-23T00:02:23.511Z,4.25
2022-08-23T00:05:07.829Z,3.63
2022-08-23T00:07:38.698Z,5.13
2022-08-23T00:10:06.481Z,2.83
2022-08-23T00:12:33.736Z,5.13
2022-08-23T00:15:01.018Z,5.43
2022-08-23T00:17:34.249Z,4.35
2022-08-23T00:20:06.951Z,5.55
2022-08-23T00:22:34.391Z,2.35
2022-08-23T00:25:01.737Z,3.50
2022-08-23T00:27:29.060Z,5.05
2022-08-23T00:29:56.794Z,6.25
2022-08-23T00:32:25.839Z,3.08
2022-08-23T00:34:53.279Z,4.53
2022-08-23T00:37:21.339Z,2.05
2022-08-23T00:39:48.667Z,2.22
2022-08-23T00:42:53.513Z,5.18
2022-08-23T00:45:43.962Z,3.75
2022-08-23T00:48:12.392Z,12.02
2022-08-23T00:50:50.949Z,6.55
2022-08-23T00:53:29.752Z,6.72
2022-08-23T00:55:58.831Z,5.40
2022-08-23T00:58:26.524Z,9.27
2022-08-23T01:00:54.640Z,10.27
2022-08-23T01:03:25.465Z,12.70
2022-08-23T01:08:23.885Z,8.65
2022-08-23T01:10:55.649Z,8.13
2022-08-23T01:13:43.178Z,9.20
2022-08-23T01:16:12.489Z,11.23
2022-08-23T01:18:40.473Z,12.60
2022-08-23T01:21:26.027Z,15.23
2022-08-23T01:23:55.720Z,10.52
2022-08-23T01:26:24.999Z,11.13
2022-08-23T01:28:53.178Z,11.02
2022-08-23T01:31:21.721Z,11.02
2022-08-23T01:33:51.686Z,18.58
2022-08-23T01:36:18.993Z,13.07
2022-08-23T01:38:46.330Z,10.20
2022-08-23T01:41:13.614Z,8.30
2022-08-23T01:43:40.991Z,9.32
2022-08-23T01:46:12.231Z,14.13
2022-08-23T01:48:40.128Z,7.45
2022-08-23T01:51:07.765Z,10.55
2022-08-23T01:53:35.041Z,6.72
2022-08-23T01:56:02.421Z,9.95
2022-08-23T01:58:30.220Z,10.73
2022-08-23T02:00:57.855Z,7.68
2022-08-23T02:03:25.267Z,11.90
2022-08-23T02:08:44.130Z,12.98
2022-08-23T02:11:12.782Z,11.05
2022-08-23T02:13:40.083Z,12.25
2022-08-23T02:16:07.482Z,11.32
2022-08-23T02:18:35.184Z,8.90
2022-08-23T02:21:02.705Z,12.63
2022-08-23T02:23:30.124Z,9.90
2022-08-23T02:25:57.559Z,12.75
2022-08-23T02:28:25.276Z,10.82
2022-08-23T02:30:53.803Z,9.50
2022-08-23T02:33:21.736Z,11.38
2022-08-23T02:35:50.063Z,12.30
2022-08-23T02:38:18.206Z,8.25
2022-08-23T02:40:45.557Z,9.02
2022-08-23T02:43:12.881Z,11.27
2022-08-23T02:45:40.846Z,8.15
2022-08-23T02:48:09.258Z,11.10
2022-08-23T02:50:37.077Z,4.85
2022-08-23T02:53:05.062Z,10.68
2022-08-23T02:55:32.342Z,7.82
2022-08-23T02:57:59.812Z,8.45
2022-08-23T03:00:27.446Z,12.32
2022-08-23T03:02:54.911Z,7.85
2022-08-23T03:05:22.268Z,10.88
2022-08-23T03:07:49.682Z,6.05
2022-08-23T03:10:17.062Z,5.50
2022-08-23T03:12:44.350Z,10.18
2022-08-23T03:15:12.019Z,9.05
2022-08-23T03:17:39.966Z,7.53
2022-08-23T03:20:08.172Z,8.68
2022-08-23T03:22:35.795Z,10.48
2022-08-23T03:25:03.026Z,4.97
2022-08-23T03:27:31.604Z,8.45
2022-08-23T03:30:06.621Z,6.45
2022-08-23T03:32:39.036Z,3.83
2022-08-23T03:35:16.603Z,2.03
2022-08-23T03:37:43.888Z,5.85
2022-08-23T03:40:11.572Z,3.40
2022-08-23T03:42:38.944Z,6.18
2022-08-23T03:45:06.470Z,6.53
2022-08-23T03:47:33.747Z,12.98
2022-08-23T03:50:01.077Z,7.38
2022-08-23T03:52:28.373Z,3.65
2022-08-23T03:54:55.730Z,2.30
2022-08-23T03:57:23.009Z,3.20
2022-08-23T03:59:50.298Z,6.97
2022-08-23T04:02:17.640Z,3.33
2022-08-23T04:04:45.623Z,7.05
2022-08-23T04:07:13.088Z,3.80
2022-08-23T04:09:40.368Z,6.65
2022-08-23T04:12:17.289Z,2.70
2022-08-23T04:14:45.713Z,4.85
2022-08-23T04:17:17.781Z,4.45
2022-08-23T04:19:45.065Z,6.53
2022-08-23T04:22:13.525Z,6.97
2022-08-23T04:24:41.075Z,7.47
2022-08-23T04:27:08.335Z,6.68
2022-08-23T04:29:35.641Z,10.30
2022-08-23T04:32:05.479Z,3.15
2022-08-23T04:34:35.616Z,8.63
2022-08-23T04:37:03.020Z,5.88
2022-08-23T04:39:51.634Z,6.45
2022-08-23T04:42:23.143Z,4.18
2022-08-23T04:44:51.231Z,3.97
2022-08-23T04:47:19.208Z,3.50
2022-08-23T04:49:46.923Z,5.07
2022-08-23T04:52:19.025Z,4.07
2022-08-23T04:57:15.483Z,4.93
2022-08-23T04:59:43.250Z,2.03
2022-08-23T05:02:10.528Z,5.25
2022-08-23T05:04:37.857Z,1.25
2022-08-23T05:07:05.183Z,4.75
2022-08-23T05:09:32.480Z,4.95
2022-08-23T05:11:59.780Z,2.47
2022-08-23T05:14:27.195Z,5.55
2022-08-23T05:16:54.471Z,1.38
2022-08-23T05:19:21.736Z,4.55
2022-08-23T05:21:49.968Z,5.90
2022-08-23T05:24:19.200Z,3.65
2022-08-23T05:26:46.594Z,3.45
2022-08-23T05:29:13.917Z,3.10
2022-08-23T05:31:41.181Z,4.10
2022-08-23T05:34:08.615Z,2.25
2022-08-23T05:36:36.024Z,3.08
2022-08-23T05:39:03.417Z,4.00
2022-08-23T05:41:38.385Z,4.28
2022-08-23T05:44:05.894Z,7.75
2022-08-23T05:46:33.775Z,3.22
2022-08-23T05:49:01.669Z,3.78
2022-08-23T05:51:30.734Z,0.90
2022-08-23T05:53:59.167Z,2.40
2022-08-23T05:56:27.810Z,2.17
2022-08-23T05:58:59.932Z,2.10
2022-08-23T06:01:28.368Z,5.13
2022-08-23T06:03:55.743Z,1.90
2022-08-23T06:06:23.054Z,4.15
2022-08-23T06:09:06.067Z,2.78
2022-08-23T06:11:33.934Z,4.10
2022-08-23T06:14:04.515Z,2.80
2022-08-23T06:16:33.387Z,4.13
2022-08-23T06:19:04.389Z,5.75
2022-08-23T06:21:33.138Z,1.42
2022-08-23T06:24:00.458Z,1.10
2022-08-23T06:26:31.249Z,1.80
2022-08-23T06:29:00.155Z,2.25
2022-08-23T06:31:47.129Z,3.05
2022-08-23T06:34:29.844Z,3.20
2022-08-23T06:36:58.937Z,1.60
2022-08-23T06:39:27.029Z,3.50
2022-08-23T06:41:54.734Z,1.52
2022-08-23T06:44:22.298Z,2.58
2022-08-23T06:46:49.691Z,4.03
2022-08-23T06:49:17.312Z,6.95
2022-08-23T06:51:46.024Z,1.42
2022-08-23T06:54:14.732Z,3.15
2022-08-23T06:56:42.744Z,2.40
2022-08-23T06:59:10.141Z,2.80
2022-08-23T07:01:45.616Z,2.97
2022-08-23T07:04:15.011Z,1.85
2022-08-23T07:06:42.283Z,2.30
2022-08-23T07:09:09.599Z,1.80
2022-08-23T07:11:36.890Z,1.58
2022-08-23T07:14:05.711Z,0.30
2022-08-23T07:16:34.233Z,3.22
2022-08-23T07:19:01.787Z,2.28
2022-08-23T07:21:29.142Z,2.25
2022-08-23T07:23:56.701Z,3.03
2022-08-23T07:26:24.221Z,1.75
2022-08-23T07:28:51.790Z,3.72
2022-08-23T07:31:19.337Z,1.15
2022-08-23T07:33:47.834Z,3.88
2022-08-23T07:36:16.507Z,2.85
2022-08-23T07:38:45.449Z,2.80
2022-08-23T07:41:13.672Z,1.70
2022-08-23T07:43:41.402Z,2.83
2022-08-23T07:46:09.566Z,4.55
2022-08-23T07:48:54.079Z,2.15
2022-08-23T07:51:22.736Z,3.45
2022-08-23T07:53:50.022Z,7.57
2022-08-23T07:56:18.584Z,2.05
2022-08-23T07:58:45.869Z,2.83
2022-08-23T08:01:18.226Z,3.22
2022-08-23T08:06:14.618Z,3.75
2022-08-23T08:08:42.960Z,5.55
2022-08-23T08:11:11.677Z,2.50
2022-08-23T08:13:40.178Z,1.98
2022-08-23T08:16:08.644Z,3.47
2022-08-23T08:18:36.832Z,1.63
2022-08-23T08:21:05.032Z,0.70
2022-08-23T08:23:32.510Z,2.20
2022-08-23T08:26:01.301Z,1.73
2022-08-23T08:28:28.606Z,1.00
2022-08-23T08:30:55.968Z,1.77
2022-08-23T08:33:24.515Z,1.20
2022-08-23T08:35:59.632Z,1.80
2022-08-23T08:38:28.909Z,1.10
2022-08-23T08:41:10.000Z,0.35
2022-08-23T08:43:37.324Z,0.30
2022-08-23T08:46:27.928Z,2.05
2022-08-23T08:48:58.921Z,2.28
2022-08-23T08:51:27.267Z,2.05
2022-08-23T08:53:55.758Z,1.10
2022-08-23T08:56:32.134Z,0.40
2022-08-23T08:59:00.940Z,1.15
2022-08-23T09:01:29.408Z,1.50
2022-08-23T09:03:57.481Z,3.05
2022-08-23T09:06:36.525Z,3.63
2022-08-23T09:09:19.694Z,1.42
2022-08-23T09:12:25.911Z,0.77
2022-08-23T09:15:04.070Z,2.53
2022-08-23T09:17:37.319Z,0.70
2022-08-23T09:20:06.244Z,2.00
2022-08-23T09:22:45.995Z,1.05
2022-08-23T09:25:14.252Z,1.15
2022-08-23T09:27:43.732Z,1.35
2022-08-23T09:30:13.649Z,2.65
2022-08-23T09:32:43.224Z,0.85
2022-08-23T09:35:28.471Z,0.70
2022-08-23T09:38:00.855Z,2.60
2022-08-23T09:40:33.848Z,1.52
2022-08-23T09:43:06.100Z,5.40
2022-08-23T09:45:35.855Z,1.08
2022-08-23T09:48:03.796Z,2.40
2022-08-23T09:50:43.277Z,1.15
2022-08-23T09:53:11.370Z,0.85
2022-08-23T09:55:42.005Z,2.30
2022-08-23T09:58:18.730Z,2.30
2022-08-23T10:00:47.136Z,3.63
2022-08-23T10:03:22.466Z,3.78
2022-08-23T10:05:54.765Z,6.22
2022-08-23T10:08:28.295Z,6.45
2022-08-23T10:11:03.218Z,1.10
2022-08-23T10:13:32.234Z,2.10
2022-08-23T10:16:00.004Z,1.70
2022-08-23T10:18:36.407Z,1.55
2022-08-23T10:21:20.347Z,1.83
2022-08-23T10:24:07.070Z,0.90
2022-08-23T10:26:35.288Z,2.30
2022-08-23T10:29:33.517Z,1.73
2022-08-23T10:32:06.688Z,2.28
2022-08-23T10:34:39.807Z,0.30
2022-08-23T10:37:09.820Z,1.05
2022-08-23T10:39:40.626Z,1.77
2022-08-23T10:42:27.572Z,0.77
2022-08-23T10:45:27.470Z,0.82
2022-08-23T10:48:12.339Z,0.43
2022-08-23T10:50:54.645Z,1.38
2022-08-23T10:53:25.188Z,0.98
2022-08-23T10:56:04.909Z,1.00
2022-08-23T10:58:55.209Z,0.10
2022-08-23T11:01:33.989Z,0.32
2022-08-23T11:04:01.599Z,1.45
2022-08-23T11:06:37.893Z,0.98
2022-08-23T11:09:10.772Z,1.17
2022-08-23T11:11:49.226Z,1.40
2022-08-23T11:14:31.624Z,0.40
2022-08-23T11:17:00.563Z,0.57
2022-08-23T11:19:46.481Z,0.50
2022-08-23T11:22:24.753Z,0.85
2022-08-23T11:24:54.364Z,1.02
2022-08-23T11:27:50.783Z,1.40
2022-08-23T11:30:33.282Z,0.90
2022-08-23T11:33:10.481Z,0.28
2022-08-23T11:35:44.903Z,1.88
2022-08-23T11:38:13.471Z,0.77
2022-08-23T11:40:40.791Z,0.10
2022-08-23T11:43:13.640Z,0.52
2022-08-23T11:45:47.882Z,1.08
2022-08-23T11:48:35.430Z,0.60
2022-08-23T11:51:14.970Z,0.73
2022-08-23T11:53:58.682Z,0.30
2022-08-23T11:56:37.487Z,0.47
2022-08-23T11:59:07.770Z,1.35
2022-08-23T12:01:37.600Z,0.60
2022-08-23T12:04:31.403Z,2.25
2022-08-23T12:07:03.647Z,1.05
2022-08-23T12:09:30.996Z,1.63
2022-08-23T12:11:59.032Z,1.58
2022-08-23T12:14:31.439Z,1.80
2022-08-23T12:17:03.643Z,3.95
2022-08-23T12:19:49.123Z,0.85
2022-08-23T12:22:43.824Z,1.77
2022-08-23T12:25:19.399Z,0.60
2022-08-23T12:27:50.997Z,1.02
2022-08-23T12:30:23.011Z,1.77
2022-08-23T12:33:05.171Z,1.30
2022-08-23T12:35:42.306Z,1.50
2022-08-23T12:38:12.239Z,0.63
2022-08-23T12:40:46.577Z,0.40
2022-08-23T12:43:18.213Z,1.20
2022-08-23T12:45:54.184Z,1.33
2022-08-23T12:48:25.053Z,1.70
2022-08-23T12:50:55.785Z,1.90
2022-08-23T12:53:31.313Z,2.03
2022-08-23T12:56:05.629Z,0.95
2022-08-23T12:58:36.354Z,3.33
2022-08-23T13:01:09.994Z,2.50
2022-08-23T13:03:40.101Z,2.78
2022-08-23T13:06:13.040Z,1.30
2022-08-23T13:08:44.281Z,1.63
2022-08-23T13:11:12.631Z,1.27
2022-08-23T13:13:41.392Z,2.75
2022-08-23T13:16:27.362Z,0.50
2022-08-23T13:18:56.178Z,2.08
2022-08-23T13:21:23.547Z,0.80
2022-08-23T13:23:51.606Z,1.92
2022-08-23T13:26:26.752Z,2.33
2022-08-23T13:29:05.482Z,1.45
2022-08-23T13:31:51.350Z,1.65
2022-08-23T13:34:37.043Z,1.75
2022-08-23T13:37:17.481Z,1.20
2022-08-23T13:39:49.692Z,3.17
2022-08-23T13:42:25.745Z,2.58
2022-08-23T13:44:53.762Z,1.17
2022-08-23T13:47:23.679Z,1.20
2022-08-23T13:49:51.555Z,1.38
2022-08-23T13:52:45.829Z,1.42
2022-08-23T13:55:06.314Z,1.70
2022-08-23T13:57:37.128Z,1.98
2022-08-23T14:00:08.341Z,2.53
2022-08-23T14:02:35.964Z,2.90
2022-08-23T14:05:09.558Z,4.18
2022-08-23T14:07:37.019Z,4.30
2022-08-23T14:10:04.673Z,2.13
2022-08-23T14:12:33.792Z,2.67
2022-08-23T14:15:03.027Z,2.30
2022-08-23T14:17:30.996Z,1.63
2022-08-23T14:22:45.909Z,2.75
2022-08-23T14:25:14.016Z,1.65
2022-08-23T14:27:42.912Z,3.55
2022-08-23T14:30:11.640Z,4.95
2022-08-23T14:32:40.761Z,3.03
2022-08-23T14:35:08.629Z,4.03
2022-08-23T14:40:25.936Z,2.45
2022-08-23T14:42:53.957Z,2.42
2022-08-23T14:45:21.508Z,4.65
2022-08-23T14:47:48.781Z,3.47
2022-08-23T14:50:16.576Z,3.10
2022-08-23T14:52:45.802Z,4.93
2022-08-23T14:55:14.003Z,4.97
2022-08-23T14:57:41.398Z,3.45
2022-08-23T15:00:13.670Z,2.20
2022-08-23T15:02:44.430Z,4.03
2022-08-23T15:05:12.665Z,1.48
2022-08-23T15:07:40.057Z,1.35
2022-08-23T15:10:09.851Z,1.27
2022-08-23T15:15:25.367Z,0.82
2022-08-23T15:17:56.911Z,1.48
2022-08-23T15:20:25.933Z,1.67
2022-08-23T15:22:55.386Z,1.77
2022-08-23T15:25:35.098Z,3.42
2022-08-23T15:28:02.741Z,3.40
2022-08-23T15:30:33.555Z,5.03
2022-08-23T15:33:01.138Z,4.88
2022-08-23T15:35:29.050Z,4.45
2022-08-23T15:37:57.303Z,6.80
2022-08-23T15:40:25.588Z,5.60
2022-08-23T15:42:53.234Z,6.18
2022-08-23T15:45:20.573Z,3.78
2022-08-23T15:47:52.794Z,10.07
2022-08-23T15:50:21.580Z,12.45
2022-08-23T15:52:48.900Z,6.07
2022-08-23T15:55:16.257Z,8.50
2022-08-23T15:57:46.097Z,6.22
2022-08-23T16:00:14.848Z,9.73
2022-08-23T16:03:06.625Z,7.05
2022-08-23T16:05:29.488Z,11.00
2022-08-23T16:07:58.181Z,11.35
2022-08-23T16:10:28.365Z,5.50
2022-08-23T16:12:56.125Z,5.32
2022-08-23T16:15:23.473Z,3.88
2022-08-23T16:17:50.772Z,4.95
2022-08-23T16:20:18.187Z,5.75
2022-08-23T16:22:45.579Z,4.35
2022-08-23T16:25:12.873Z,8.13
2022-08-23T16:27:40.211Z,8.60
2022-08-23T16:30:08.156Z,9.85
2022-08-23T16:32:39.963Z,10.57
2022-08-23T16:35:07.657Z,12.20
2022-08-23T16:37:36.138Z,13.05
2022-08-23T16:40:04.774Z,14.57
2022-08-23T16:42:32.129Z,6.35
2022-08-23T16:44:59.435Z,6.00
2022-08-23T16:47:26.810Z,7.90
2022-08-23T16:49:54.109Z,6.63
2022-08-23T16:52:25.946Z,10.23
2022-08-23T16:55:02.737Z,11.60
2022-08-23T16:57:30.028Z,8.48
2022-08-23T16:59:57.357Z,8.35
2022-08-23T17:02:29.687Z,9.35
2022-08-23T17:04:57.229Z,7.53
2022-08-23T17:07:24.496Z,8.30
2022-08-23T17:09:51.965Z,8.25
2022-08-23T17:12:19.933Z,7.70
2022-08-23T17:14:48.952Z,6.68
2022-08-23T17:17:16.501Z,5.75
2022-08-23T17:19:44.528Z,5.60
2022-08-23T17:22:12.503Z,7.45
2022-08-23T17:24:40.631Z,7.22
2022-08-23T17:27:08.109Z,7.30
2022-08-23T17:29:37.539Z,8.88
2022-08-23T17:32:05.370Z,3.75
2022-08-23T17:34:32.736Z,3.15
2022-08-23T17:37:00.049Z,4.53
2022-08-23T17:39:29.149Z,6.25
2022-08-23T17:41:57.674Z,4.47
2022-08-23T17:44:25.119Z,5.35
2022-08-23T17:46:53.160Z,4.05
2022-08-23T17:49:20.597Z,5.68
2022-08-23T17:51:48.538Z,5.95
2022-08-23T17:54:16.754Z,7.82
2022-08-23T17:56:50.241Z,4.95
2022-08-23T17:59:19.208Z,7.15
2022-08-23T18:01:46.612Z,5.95
2022-08-23T18:04:14.099Z,3.97
2022-08-23T18:06:41.657Z,6.40
2022-08-23T18:09:09.213Z,8.13
2022-08-23T18:11:36.944Z,4.82
2022-08-23T18:14:05.033Z,4.72
2022-08-23T18:16:35.635Z,7.65
2022-08-23T18:19:03.883Z,3.75
2022-08-23T18:21:31.451Z,6.32
2022-08-23T18:23:59.210Z,6.93
2022-08-23T18:26:45.468Z,4.10
2022-08-23T18:29:14.554Z,7.03
2022-08-23T18:31:43.688Z,6.20
2022-08-23T18:34:11.778Z,6.00
2022-08-23T18:36:39.502Z,7.60
2022-08-23T18:39:08.078Z,5.25
2022-08-23T18:41:35.884Z,5.93
2022-08-23T18:44:05.806Z,4.70
2022-08-23T18:46:33.948Z,7.00
2022-08-23T18:49:01.376Z,3.08
2022-08-23T18:51:29.654Z,5.30
2022-08-23T18:53:57.074Z,3.00
2022-08-23T18:56:24.458Z,5.55
2022-08-23T18:58:51.851Z,4.78
2022-08-23T19:01:27.379Z,4.20
2022-08-23T19:03:55.668Z,6.10
2022-08-23T19:06:23.554Z,5.63
2022-08-23T19:08:51.770Z,4.90
2022-08-23T19:11:20.050Z,5.47
2022-08-23T19:13:47.669Z,6.10
2022-08-23T19:16:15.803Z,3.30
2022-08-23T19:18:47.291Z,5.32
2022-08-23T19:21:18.199Z,6.75
2022-08-23T19:23:45.988Z,6.30
2022-08-23T19:26:14.495Z,4.28
2022-08-23T19:28:42.497Z,7.63
2022-08-23T19:31:09.903Z,8.18
2022-08-23T19:33:37.270Z,8.32
2022-08-23T19:36:04.817Z,4.32
2022-08-23T19:38:32.816Z,4.43
2022-08-23T19:41:00.566Z,6.88
2022-08-23T19:43:27.900Z,8.05
2022-08-23T19:45:59.473Z,5.47
2022-08-23T19:48:26.803Z,5.70
2022-08-23T19:50:54.089Z,5.45
2022-08-23T19:53:21.430Z,9.23
2022-08-23T19:55:48.672Z,5.47
2022-08-23T19:58:16.800Z,5.80
2022-08-23T20:00:44.164Z,4.85
2022-08-23T20:03:11.929Z,5.72
2022-08-23T20:05:39.299Z,5.43
2022-08-23T20:08:07.463Z,5.78
2022-08-23T20:10:34.719Z,4.90
2022-08-23T20:13:02.113Z,4.70
2022-08-23T20:15:29.788Z,7.05
2022-08-23T20:17:58.492Z,4.20
2022-08-23T20:20:25.766Z,8.73
2022-08-23T20:23:12.004Z,7.90
2022-08-23T20:25:39.286Z,6.43
2022-08-23T20:28:08.245Z,6.22
2022-08-23T20:30:36.104Z,6.72
2022-08-23T20:33:03.554Z,8.02
2022-08-23T20:35:31.151Z,9.77
2022-08-23T20:37:58.663Z,10.10
2022-08-23T20:40:26.069Z,10.15
2022-08-23T20:42:53.596Z,7.30
2022-08-23T20:45:20.975Z,12.55
2022-08-23T20:47:48.344Z,13.80
2022-08-23T20:50:15.692Z,8.73
2022-08-23T20:52:43.190Z,9.52
2022-08-23T20:55:11.138Z,11.82
2022-08-23T20:57:38.885Z,9.90
2022-08-23T21:00:07.631Z,10.13
2022-08-23T21:02:34.949Z,9.23
2022-08-23T21:05:02.253Z,8.20
2022-08-23T21:07:33.904Z,10.98
2022-08-23T21:10:01.173Z,7.88
2022-08-23T21:12:28.414Z,6.78
2022-08-23T21:14:56.825Z,6.55
2022-08-23T21:17:24.095Z,7.85
2022-08-23T21:19:51.409Z,7.40
2022-08-23T21:22:18.649Z,8.50
2022-08-23T21:24:46.732Z,10.00
2022-08-23T21:27:16.056Z,7.28
2022-08-23T21:29:43.380Z,7.78
2022-08-23T21:32:11.053Z,8.90
2022-08-23T21:34:38.354Z,5.97
2022-08-23T21:37:05.661Z,6.30
2022-08-23T21:39:33.070Z,8.18
2022-08-23T21:42:00.522Z,7.00
2022-08-23T21:44:27.986Z,11.70
2022-08-23T21:46:55.516Z,8.77
2022-08-23T21:49:23.272Z,9.98
2022-08-23T21:51:53.152Z,7.63
2022-08-23T21:54:20.919Z,10.88
2022-08-23T21:56:48.411Z,10.77
2022-08-23T21:59:16.702Z,8.30
2022-08-23T22:01:44.293Z,9.90
2022-08-23T22:04:13.006Z,9.52
2022-08-23T22:06:41.719Z,11.27
2022-08-23T22:09:10.216Z,5.32
2022-08-23T22:11:41.684Z,5.50
2022-08-23T22:14:14.427Z,8.50
2022-08-23T22:16:44.064Z,9.07
2022-08-23T22:19:12.346Z,5.38
2022-08-23T22:21:40.039Z,6.53
2022-08-23T22:24:07.353Z,12.45
2022-08-23T22:26:35.286Z,13.25
2022-08-23T22:29:02.534Z,4.03
2022-08-23T22:31:29.876Z,11.82
2022-08-23T22:33:57.189Z,9.45
2022-08-23T22:36:24.795Z,7.03
2022-08-23T22:38:52.063Z,4.85
2022-08-23T22:41:20.869Z,7.00
2022-08-23T22:43:48.171Z,7.32
2022-08-23T22:46:15.521Z,9.52
2022-08-23T22:48:42.812Z,7.15
2022-08-23T22:51:11.681Z,8.10
2022-08-23T22:53:39.873Z,10.85
2022-08-23T22:56:07.638Z,12.65
2022-08-23T22:58:34.915Z,10.15
2022-08-23T23:01:07.161Z,11.05
2022-08-23T23:03:41.300Z,10.73
2022-08-23T23:06:09.299Z,9.43
2022-08-23T23:08:36.955Z,11.48
2022-08-23T23:11:06.185Z,7.50
2022-08-23T23:13:33.882Z,6.40
2022-08-23T23:16:06.644Z,4.32
2022-08-23T23:18:34.669Z,8.02
2022-08-23T23:21:03.207Z,7.20
2022-08-23T23:23:31.444Z,8.80
2022-08-23T23:25:59.101Z,7.00
2022-08-23T23:28:26.643Z,5.55
2022-08-23T23:30:54.699Z,5.50
2022-08-23T23:33:22.518Z,12.20
2022-08-23T23:35:51.634Z,8.75
2022-08-23T23:38:19.073Z,8.48
2022-08-23T23:40:46.394Z,13.43
2022-08-23T23:43:13.686Z,12.43
2022-08-23T23:45:41.487Z,12.55
2022-08-23T23:48:09.706Z,14.55
2022-08-23T23:50:37.091Z,8.90
2022-08-23T23:53:08.849Z,13.35
2022-08-23T23:55:36.186Z,10.27
2022-08-23T23:58:03.562Z,7.63
